Terminal Aerodrome Forecast
Issued by NWS Norman, OK

Home | Current Version | Previous Version | Text Only | Print | Product List | Glossary On
Versions: 1 2 3 4 5 6 7 8 9 10 11 12 13 14 15 16 17 18 19 20 21 22 23 24 25 26
000
FTUS44 KOUN 282019 AAA
TAFSPS
TAF AMD
KSPS 282019Z 2820/2918 15013G21KT P6SM BKN025
     FM282300 14015KT 5SM TSRA BR OVC015CB
      TEMPO 2823/2903 VRB30G50KT 2SM +TSRA OVC006CB
     FM290300 15010KT 5SM -SHRA BR OVC012
      TEMPO 2903/2907 VRB20G40KT 4SM -TSRA OVC005CB
     FM291200 16010KT 5SM BR OVC012
     FM291500 20014KT P6SM BKN040=

USA.gov is the U.S. government's official web portal to all federal, state and local government web resources and services.